createdAt,value
2018-06-23T00:02:00.518Z,2.80
2018-06-23T00:04:37.146Z,2.43
2018-06-23T00:07:13.543Z,2.57
2018-06-23T00:09:50.215Z,1.63
2018-06-23T00:12:26.904Z,2.57
2018-06-23T00:15:04.050Z,1.90
2018-06-23T00:17:40.525Z,2.10
2018-06-23T00:20:17.090Z,2.30
2018-06-23T00:22:54.383Z,3.20
2018-06-23T00:25:37.023Z,1.33
2018-06-23T00:28:13.557Z,2.20
2018-06-23T00:30:50.250Z,2.40
2018-06-23T00:33:26.816Z,2.00
2018-06-23T00:36:03.359Z,2.07
2018-06-23T00:38:41.016Z,2.93
2018-06-23T00:41:18.510Z,2.27
2018-06-23T00:43:54.783Z,2.30
2018-06-23T00:46:33.297Z,1.93
2018-06-23T00:49:09.827Z,2.60
2018-06-23T00:51:46.537Z,2.37
2018-06-23T00:54:22.903Z,2.53
2018-06-23T00:56:59.454Z,3.00
2018-06-23T00:59:44.931Z,2.67
2018-06-23T01:02:21.463Z,3.47
2018-06-23T01:04:57.811Z,2.40
2018-06-23T01:07:34.298Z,2.53
2018-06-23T01:10:10.798Z,2.90
2018-06-23T01:12:47.394Z,3.00
2018-06-23T01:15:23.888Z,3.20
2018-06-23T01:18:00.353Z,2.60
2018-06-23T01:20:36.887Z,2.47
2018-06-23T01:23:13.435Z,2.40
2018-06-23T01:25:50.085Z,2.07
2018-06-23T01:28:26.590Z,2.30
2018-06-23T01:31:03.255Z,2.87
2018-06-23T01:33:39.632Z,2.87
2018-06-23T01:36:16.720Z,2.10
2018-06-23T01:38:53.102Z,1.50
2018-06-23T01:41:30.719Z,2.67
2018-06-23T01:44:07.652Z,2.20
2018-06-23T01:46:44.348Z,3.23
2018-06-23T01:49:20.864Z,2.70
2018-06-23T01:51:57.412Z,2.53
2018-06-23T01:54:33.787Z,3.30
2018-06-23T01:57:10.413Z,3.37
2018-06-23T01:59:46.836Z,2.20
2018-06-23T02:02:23.307Z,3.20
2018-06-23T02:04:59.714Z,3.70
2018-06-23T02:07:36.163Z,2.90
2018-06-23T02:10:12.742Z,3.23
2018-06-23T02:12:49.153Z,2.90
2018-06-23T02:15:30.563Z,3.13
2018-06-23T02:18:12.418Z,4.57
2018-06-23T02:20:54.069Z,2.70
2018-06-23T02:23:35.874Z,3.00
2018-06-23T02:26:17.611Z,2.97
2018-06-23T02:29:00.329Z,2.93
2018-06-23T02:31:42.032Z,2.60
2018-06-23T02:34:23.815Z,3.40
2018-06-23T02:37:02.977Z,3.10
2018-06-23T02:39:39.465Z,2.93
2018-06-23T02:42:15.981Z,3.30
2018-06-23T02:44:52.449Z,3.67
2018-06-23T02:47:29.073Z,3.57
2018-06-23T02:50:05.394Z,3.20
2018-06-23T02:52:41.645Z,5.00
2018-06-23T02:55:18.098Z,3.83
2018-06-23T02:57:54.119Z,4.20
2018-06-23T03:00:30.351Z,3.87
2018-06-23T03:03:07.634Z,4.47
2018-06-23T03:05:44.092Z,3.70
2018-06-23T03:08:20.437Z,4.70
2018-06-23T03:10:56.912Z,3.70
2018-06-23T03:13:33.552Z,4.00
2018-06-23T03:16:10.038Z,4.07
2018-06-23T03:18:46.591Z,4.13
2018-06-23T03:21:23.202Z,4.70
2018-06-23T03:23:59.755Z,4.23
2018-06-23T03:26:36.208Z,4.43
2018-06-23T03:29:12.686Z,3.47
2018-06-23T03:31:49.241Z,4.27
2018-06-23T03:34:25.733Z,4.33
2018-06-23T03:37:03.155Z,4.10
2018-06-23T03:39:39.517Z,7.33
2018-06-23T03:42:16.049Z,5.30
2018-06-23T03:44:52.411Z,5.30
2018-06-23T03:47:28.821Z,5.37
2018-06-23T03:50:05.527Z,5.40
2018-06-23T03:52:41.851Z,3.87
2018-06-23T03:55:18.251Z,4.83
2018-06-23T03:57:54.815Z,4.27
2018-06-23T04:00:31.371Z,4.40
2018-06-23T04:03:07.942Z,4.20
2018-06-23T04:05:47.380Z,5.10
2018-06-23T04:08:23.775Z,5.40
2018-06-23T04:11:00.121Z,5.23
2018-06-23T04:13:36.660Z,5.07
2018-06-23T04:16:13.054Z,4.63
2018-06-23T04:18:55.928Z,5.17
2018-06-23T04:21:32.849Z,5.40
2018-06-23T04:24:09.393Z,5.70
2018-06-23T04:26:45.854Z,5.60
2018-06-23T04:29:22.364Z,5.00
2018-06-23T04:31:58.698Z,5.87
2018-06-23T04:34:35.150Z,8.13
2018-06-23T04:37:12.583Z,7.10
2018-06-23T04:39:48.900Z,7.43
2018-06-23T04:42:27.119Z,6.93
2018-06-23T04:45:03.431Z,8.23
2018-06-23T04:47:40.478Z,6.80
2018-06-23T04:50:16.996Z,8.30
2018-06-23T04:52:54.125Z,7.47
2018-06-23T04:55:30.640Z,7.50
2018-06-23T04:58:07.188Z,7.50
2018-06-23T05:00:43.688Z,6.40
2018-06-23T05:03:20.123Z,5.67
2018-06-23T05:05:56.596Z,5.83
2018-06-23T05:08:33.305Z,5.80
2018-06-23T05:11:09.794Z,5.43
2018-06-23T05:13:46.223Z,4.17
2018-06-23T05:16:22.493Z,4.77
2018-06-23T05:18:58.988Z,4.50
2018-06-23T05:21:35.455Z,4.97
2018-06-23T05:24:11.820Z,6.23
2018-06-23T05:26:48.258Z,5.43
2018-06-23T05:29:24.743Z,5.50
2018-06-23T05:32:01.338Z,5.83
2018-06-23T05:34:37.420Z,5.27
2018-06-23T05:37:13.689Z,11.60
2018-06-23T05:39:50.185Z,5.97
2018-06-23T05:42:26.855Z,5.90
2018-06-23T05:45:03.366Z,5.73
2018-06-23T05:47:39.888Z,5.07
2018-06-23T05:50:16.322Z,5.90
2018-06-23T05:52:52.688Z,6.53
2018-06-23T05:55:29.188Z,6.20
2018-06-23T05:58:05.905Z,5.50
2018-06-23T06:00:42.354Z,5.40
2018-06-23T06:03:18.812Z,5.50
2018-06-23T06:05:55.444Z,6.70
2018-06-23T06:08:31.879Z,5.63
2018-06-23T06:11:08.265Z,6.70
2018-06-23T06:13:44.841Z,5.60
2018-06-23T06:16:29.489Z,5.60
2018-06-23T06:19:05.986Z,5.97
2018-06-23T06:21:42.328Z,4.80
2018-06-23T06:24:19.528Z,4.87
2018-06-23T06:26:55.895Z,11.30
2018-06-23T06:29:32.345Z,4.37
2018-06-23T06:32:08.871Z,4.27
2018-06-23T06:34:45.256Z,4.20
2018-06-23T06:37:22.355Z,4.73
2018-06-23T06:39:58.430Z,4.97
2018-06-23T06:42:35.687Z,4.13
2018-06-23T06:45:12.242Z,4.13
2018-06-23T06:47:48.728Z,3.60
2018-06-23T06:50:25.291Z,4.70
2018-06-23T06:53:01.785Z,5.07
2018-06-23T06:55:38.219Z,4.10
2018-06-23T06:58:14.687Z,3.73
2018-06-23T07:00:51.140Z,4.23
2018-06-23T07:03:28.047Z,4.20
2018-06-23T07:06:04.581Z,4.23
2018-06-23T07:08:41.655Z,4.17
2018-06-23T07:11:18.263Z,4.53
2018-06-23T07:13:54.875Z,4.60
2018-06-23T07:16:31.578Z,4.50
2018-06-23T07:19:08.175Z,4.30
2018-06-23T07:21:44.730Z,4.30
2018-06-23T07:24:21.404Z,4.40
2018-06-23T07:26:57.863Z,4.50
2018-06-23T07:29:34.195Z,4.27
2018-06-23T07:32:11.717Z,4.00
2018-06-23T07:34:48.191Z,3.93
2018-06-23T07:37:24.837Z,3.90
2018-06-23T07:40:01.183Z,4.03
2018-06-23T07:42:37.665Z,3.63
2018-06-23T07:45:14.085Z,3.30
2018-06-23T07:47:52.125Z,3.60
2018-06-23T07:50:28.706Z,3.37
2018-06-23T07:53:05.156Z,2.77
2018-06-23T07:55:41.754Z,2.60
2018-06-23T07:58:18.157Z,2.80
2018-06-23T08:00:54.797Z,2.20
2018-06-23T08:03:31.193Z,2.20
2018-06-23T08:06:07.879Z,2.77
2018-06-23T08:08:43.951Z,2.43
2018-06-23T08:11:20.218Z,2.57
2018-06-23T08:13:56.720Z,2.03
2018-06-23T08:16:33.150Z,2.73
2018-06-23T08:19:09.482Z,3.53
2018-06-23T08:21:46.027Z,2.90
2018-06-23T08:24:22.499Z,8.57
2018-06-23T08:26:59.010Z,2.93
2018-06-23T08:29:35.483Z,3.43
2018-06-23T08:32:12.003Z,2.93
2018-06-23T08:34:48.500Z,2.83
2018-06-23T08:37:25.202Z,3.20
2018-06-23T08:40:01.596Z,3.87
2018-06-23T08:42:38.710Z,3.93
2018-06-23T08:45:15.093Z,3.30
2018-06-23T08:47:51.455Z,3.33
2018-06-23T08:50:28.039Z,3.40
2018-06-23T08:53:06.611Z,3.63
2018-06-23T08:55:42.897Z,2.83
2018-06-23T08:58:19.496Z,2.30
2018-06-23T09:00:56.006Z,2.60
2018-06-23T09:03:32.451Z,2.70
2018-06-23T09:06:09.538Z,2.60
2018-06-23T09:08:46.020Z,2.30
2018-06-23T09:11:22.470Z,2.77
2018-06-23T09:13:59.696Z,2.70
2018-06-23T09:16:36.620Z,2.37
2018-06-23T09:19:13.100Z,1.90
2018-06-23T09:21:49.564Z,1.90
2018-06-23T09:24:25.991Z,1.57
2018-06-23T09:27:02.510Z,1.93
2018-06-23T09:29:38.731Z,2.30
2018-06-23T09:32:15.271Z,1.80
2018-06-23T09:34:51.798Z,1.90
2018-06-23T09:37:28.329Z,1.97
2018-06-23T09:40:04.779Z,1.77
2018-06-23T09:42:41.213Z,1.90
2018-06-23T09:45:17.659Z,2.13
2018-06-23T09:47:54.241Z,1.87
2018-06-23T09:50:30.612Z,1.70
2018-06-23T09:53:08.919Z,1.80
2018-06-23T09:55:45.588Z,1.57
2018-06-23T09:58:23.270Z,1.30
2018-06-23T10:00:59.523Z,1.97
2018-06-23T10:03:36.033Z,2.33
2018-06-23T10:06:12.494Z,1.70
2018-06-23T10:08:49.013Z,1.50
2018-06-23T10:11:25.530Z,1.83
2018-06-23T10:14:02.054Z,1.43
2018-06-23T10:16:38.725Z,1.50
2018-06-23T10:19:15.175Z,1.73
2018-06-23T10:21:51.686Z,1.60
2018-06-23T10:24:28.353Z,1.37
2018-06-23T10:27:04.818Z,1.50
2018-06-23T10:29:41.229Z,1.60
2018-06-23T10:32:17.802Z,2.07
2018-06-23T10:34:54.647Z,2.13
2018-06-23T10:37:31.015Z,2.43
2018-06-23T10:40:08.313Z,1.40
2018-06-23T10:42:44.689Z,3.00
2018-06-23T10:45:21.167Z,2.57
2018-06-23T10:47:57.666Z,2.60
2018-06-23T10:50:34.446Z,2.10
2018-06-23T10:53:10.961Z,2.50
2018-06-23T10:55:47.267Z,2.53
2018-06-23T10:58:28.206Z,2.27
2018-06-23T11:01:04.600Z,2.80
2018-06-23T11:03:40.930Z,2.17
2018-06-23T11:06:17.235Z,2.10
2018-06-23T11:08:53.792Z,2.40
2018-06-23T11:11:30.792Z,2.30
2018-06-23T11:14:07.536Z,2.90
2018-06-23T11:16:43.959Z,2.40
2018-06-23T11:19:20.306Z,2.40
2018-06-23T11:21:56.846Z,2.50
2018-06-23T11:24:33.514Z,3.03
2018-06-23T11:27:09.728Z,1.93
2018-06-23T11:29:46.098Z,2.20
2018-06-23T11:32:22.691Z,2.80
2018-06-23T11:34:59.059Z,2.80
2018-06-23T11:37:35.639Z,2.67
2018-06-23T11:40:12.077Z,2.10
2018-06-23T11:42:48.540Z,2.50
2018-06-23T11:45:24.968Z,2.97
2018-06-23T11:48:01.493Z,2.73
2018-06-23T11:50:37.833Z,2.23
2018-06-23T11:53:14.401Z,2.20
2018-06-23T11:55:50.423Z,2.10
2018-06-23T11:58:27.860Z,2.30
2018-06-23T12:01:04.983Z,2.43
2018-06-23T12:03:42.189Z,1.30
2018-06-23T12:06:23.112Z,2.00
2018-06-23T12:08:59.514Z,1.90
2018-06-23T12:11:35.993Z,1.73
2018-06-23T12:14:12.615Z,2.13
2018-06-23T12:16:49.082Z,2.17
2018-06-23T12:19:25.658Z,2.53
2018-06-23T12:22:02.154Z,2.10
2018-06-23T12:24:38.891Z,2.50
2018-06-23T12:27:15.309Z,2.13
2018-06-23T12:29:52.025Z,2.60
2018-06-23T12:32:28.543Z,2.33
2018-06-23T12:35:05.112Z,2.60
2018-06-23T12:37:41.678Z,2.10
2018-06-23T12:40:18.111Z,1.80
2018-06-23T12:42:54.617Z,2.37
2018-06-23T12:45:31.064Z,1.80
2018-06-23T12:48:07.656Z,1.70
2018-06-23T12:50:44.042Z,2.20
2018-06-23T12:53:20.581Z,1.93
2018-06-23T12:55:56.929Z,1.77
2018-06-23T12:58:33.264Z,1.90
2018-06-23T13:01:09.785Z,1.80
2018-06-23T13:03:48.040Z,1.90
2018-06-23T13:06:24.426Z,2.03
2018-06-23T13:09:00.502Z,2.00
2018-06-23T13:11:36.743Z,2.13
2018-06-23T13:14:13.203Z,2.30
2018-06-23T13:16:49.591Z,3.23
2018-06-23T13:19:26.138Z,2.50
2018-06-23T13:22:02.697Z,2.87
2018-06-23T13:24:39.321Z,2.27
2018-06-23T13:27:15.514Z,2.40
2018-06-23T13:29:51.699Z,3.00
2018-06-23T13:32:28.025Z,2.77
2018-06-23T13:35:04.791Z,2.20
2018-06-23T13:37:41.244Z,2.50
2018-06-23T13:40:17.866Z,2.07
2018-06-23T13:42:54.208Z,2.00
2018-06-23T13:45:30.763Z,2.70
2018-06-23T13:48:07.487Z,2.70
2018-06-23T13:50:43.813Z,3.10
2018-06-23T13:53:19.933Z,3.50
2018-06-23T13:55:56.561Z,3.17
2018-06-23T13:58:32.898Z,3.40
2018-06-23T14:01:09.517Z,3.47
2018-06-23T14:03:46.010Z,3.40
2018-06-23T14:06:22.315Z,3.77
2018-06-23T14:09:01.449Z,3.67
2018-06-23T14:11:37.879Z,4.30
2018-06-23T14:14:14.580Z,4.60
2018-06-23T14:16:51.022Z,4.80
2018-06-23T14:19:28.017Z,4.43
2018-06-23T14:22:04.460Z,3.30
2018-06-23T14:24:40.935Z,5.17
2018-06-23T14:27:17.717Z,4.50
2018-06-23T14:29:54.528Z,4.87
2018-06-23T14:32:30.908Z,4.63
2018-06-23T14:35:07.477Z,4.53
2018-06-23T14:37:43.859Z,4.07
2018-06-23T14:40:20.312Z,6.00
2018-06-23T14:42:56.680Z,5.37
2018-06-23T14:45:33.260Z,4.73
2018-06-23T14:48:10.025Z,5.03
2018-06-23T14:50:46.528Z,4.77
2018-06-23T14:53:22.893Z,5.27
2018-06-23T14:55:59.404Z,5.93
2018-06-23T14:58:35.840Z,5.40
2018-06-23T15:01:12.476Z,5.13
2018-06-23T15:03:48.981Z,4.80
2018-06-23T15:06:25.449Z,4.57
2018-06-23T15:09:20.899Z,4.13
2018-06-23T15:12:14.438Z,4.93
2018-06-23T15:14:50.953Z,5.20
2018-06-23T15:17:27.450Z,5.13
2018-06-23T15:20:04.097Z,4.63
2018-06-23T15:22:40.902Z,3.90
2018-06-23T15:25:17.278Z,3.90
2018-06-23T15:27:53.700Z,4.80
2018-06-23T15:30:30.872Z,4.70
2018-06-23T15:33:07.222Z,4.00
2018-06-23T15:35:43.663Z,4.10
2018-06-23T15:38:21.288Z,4.37
2018-06-23T15:40:57.798Z,4.80
2018-06-23T15:43:34.516Z,4.87
2018-06-23T15:46:10.946Z,4.30
2018-06-23T15:48:47.431Z,4.27
2018-06-23T15:51:24.026Z,5.57
2018-06-23T15:54:00.411Z,3.83
2018-06-23T15:56:36.919Z,4.77
2018-06-23T15:59:16.028Z,4.90
2018-06-23T16:01:52.539Z,4.50
2018-06-23T16:04:31.656Z,4.10
2018-06-23T16:07:08.224Z,3.80
2018-06-23T16:09:44.859Z,3.97
2018-06-23T16:12:21.348Z,4.20
2018-06-23T16:14:58.023Z,4.07
2018-06-23T16:17:34.619Z,4.17
2018-06-23T16:20:11.186Z,4.00
2018-06-23T16:22:48.004Z,4.60
2018-06-23T16:25:24.200Z,4.23
2018-06-23T16:28:00.769Z,5.30
2018-06-23T16:30:37.265Z,4.13
2018-06-23T16:33:14.027Z,4.13
2018-06-23T16:35:50.648Z,3.93
2018-06-23T16:38:27.062Z,4.20
2018-06-23T16:41:03.675Z,4.30
2018-06-23T16:43:40.151Z,3.20
2018-06-23T16:46:16.683Z,3.70
2018-06-23T16:48:53.214Z,3.00
2018-06-23T16:51:30.530Z,3.40
2018-06-23T16:54:07.014Z,2.70
2018-06-23T16:56:43.647Z,3.43
2018-06-23T16:59:20.004Z,4.47
2018-06-23T17:01:56.688Z,2.83
2018-06-23T17:04:33.383Z,3.00
2018-06-23T17:07:10.191Z,3.60
2018-06-23T17:09:46.590Z,3.83
2018-06-23T17:12:23.361Z,3.43
2018-06-23T17:15:00.456Z,3.40
2018-06-23T17:17:38.035Z,2.93
2018-06-23T17:20:14.715Z,4.40
2018-06-23T17:22:51.284Z,2.70
2018-06-23T17:25:27.892Z,3.47
2018-06-23T17:28:04.661Z,3.00
2018-06-23T17:30:41.114Z,3.00
2018-06-23T17:33:17.520Z,2.90
2018-06-23T17:35:54.142Z,3.10
2018-06-23T17:38:30.661Z,3.60
2018-06-23T17:41:08.029Z,3.13
2018-06-23T17:43:44.381Z,3.50
2018-06-23T17:46:20.902Z,2.87
2018-06-23T17:48:57.940Z,4.20
2018-06-23T17:51:34.440Z,3.80
2018-06-23T17:54:11.159Z,5.93
2018-06-23T17:56:47.753Z,3.67
2018-06-23T17:59:24.295Z,2.93
2018-06-23T18:02:00.659Z,4.20
2018-06-23T18:04:37.405Z,4.30
2018-06-23T18:07:13.861Z,3.10
2018-06-23T18:09:52.720Z,2.77
2018-06-23T18:12:29.090Z,2.90
2018-06-23T18:15:06.138Z,2.70
2018-06-23T18:17:42.566Z,2.80
2018-06-23T18:20:19.014Z,3.50
2018-06-23T18:22:55.373Z,2.87
2018-06-23T18:25:31.918Z,2.70
2018-06-23T18:28:08.253Z,3.53
2018-06-23T18:30:44.748Z,3.20
2018-06-23T18:33:21.323Z,2.70
2018-06-23T18:35:57.853Z,2.97
2018-06-23T18:38:34.387Z,3.27
2018-06-23T18:41:11.613Z,3.03
2018-06-23T18:43:48.031Z,2.30
2018-06-23T18:46:25.493Z,3.50
2018-06-23T18:49:01.955Z,2.57
2018-06-23T18:51:38.289Z,2.40
2018-06-23T18:54:14.924Z,3.00
2018-06-23T18:56:51.435Z,2.30
2018-06-23T18:59:28.008Z,3.33
2018-06-23T19:02:05.268Z,3.33
2018-06-23T19:04:41.730Z,3.87
2018-06-23T19:07:18.256Z,3.60
2018-06-23T19:09:56.775Z,3.40
2018-06-23T19:12:33.425Z,2.80
2018-06-23T19:15:10.011Z,2.77
2018-06-23T19:17:46.458Z,2.40
2018-06-23T19:20:23.011Z,3.07
2018-06-23T19:22:59.354Z,3.07
2018-06-23T19:25:35.892Z,3.10
2018-06-23T19:28:12.272Z,3.30
2018-06-23T19:30:48.823Z,2.63
2018-06-23T19:33:25.366Z,3.30
2018-06-23T19:36:02.669Z,2.97
2018-06-23T19:38:39.208Z,3.40
2018-06-23T19:41:25.920Z,3.77
2018-06-23T19:44:03.540Z,3.07
2018-06-23T19:46:40.737Z,2.83
2018-06-23T19:49:17.240Z,3.23
2018-06-23T19:51:53.733Z,3.57
2018-06-23T19:54:30.246Z,3.23
2018-06-23T19:57:07.808Z,4.10
2018-06-23T19:59:44.576Z,4.50
2018-06-23T20:02:21.076Z,3.07
2018-06-23T20:04:57.779Z,3.40
2018-06-23T20:07:34.766Z,2.97
2018-06-23T20:10:13.867Z,3.70
2018-06-23T20:12:50.316Z,3.23
2018-06-23T20:15:26.742Z,3.70
2018-06-23T20:18:03.320Z,3.10
2018-06-23T20:20:39.834Z,3.27
2018-06-23T20:23:16.433Z,3.30
2018-06-23T20:25:52.917Z,3.03
2018-06-23T20:28:29.443Z,3.50
2018-06-23T20:31:06.269Z,2.70
2018-06-23T20:33:42.685Z,2.97
2018-06-23T20:36:19.031Z,2.77
2018-06-23T20:38:55.742Z,3.00
2018-06-23T20:41:32.353Z,3.10
2018-06-23T20:44:09.266Z,2.60
2018-06-23T20:46:45.371Z,3.67
2018-06-23T20:49:23.144Z,3.27
2018-06-23T20:51:59.794Z,3.47
2018-06-23T20:54:36.323Z,3.13
2018-06-23T20:57:13.011Z,3.53
2018-06-23T20:59:49.410Z,3.37
2018-06-23T21:02:26.125Z,3.97
2018-06-23T21:05:02.816Z,2.90
2018-06-23T21:07:39.388Z,2.90
2018-06-23T21:10:33.107Z,3.90
2018-06-23T21:13:09.995Z,3.83
2018-06-23T21:15:46.558Z,3.57
2018-06-23T21:18:23.201Z,3.87
2018-06-23T21:21:00.701Z,4.10
2018-06-23T21:23:37.160Z,4.13
2018-06-23T21:26:13.752Z,4.03
2018-06-23T21:28:50.814Z,4.47
2018-06-23T21:31:27.350Z,5.03
2018-06-23T21:34:03.886Z,4.50
2018-06-23T21:36:40.501Z,5.00
2018-06-23T21:39:17.219Z,3.63
2018-06-23T21:41:53.845Z,5.00
2018-06-23T21:44:30.780Z,3.70
2018-06-23T21:47:08.269Z,3.63
2018-06-23T21:49:44.583Z,4.00
2018-06-23T21:52:21.395Z,4.10
2018-06-23T21:54:58.020Z,3.83
2018-06-23T21:57:34.710Z,3.80
2018-06-23T22:00:45.406Z,4.50
2018-06-23T22:03:22.104Z,3.60
2018-06-23T22:05:58.544Z,4.00
2018-06-23T22:08:35.253Z,4.80
2018-06-23T22:11:12.842Z,3.37
2018-06-23T22:13:49.415Z,3.60
2018-06-23T22:16:25.863Z,3.23
2018-06-23T22:19:02.316Z,3.60
2018-06-23T22:21:38.920Z,3.50
2018-06-23T22:24:15.413Z,4.00
2018-06-23T22:26:51.894Z,3.17
2018-06-23T22:29:28.530Z,3.77
2018-06-23T22:32:04.970Z,3.67
2018-06-23T22:34:41.364Z,3.13
2018-06-23T22:37:17.914Z,4.57
2018-06-23T22:39:54.320Z,3.87
2018-06-23T22:42:30.880Z,4.27
2018-06-23T22:45:08.094Z,3.10
2018-06-23T22:47:45.774Z,4.00
2018-06-23T22:50:22.281Z,3.60
2018-06-23T22:52:58.726Z,5.27
2018-06-23T22:55:36.484Z,7.50
2018-06-23T22:58:12.889Z,5.77
2018-06-23T23:00:49.286Z,10.17
2018-06-23T23:03:26.330Z,7.83
2018-06-23T23:06:03.024Z,5.23
2018-06-23T23:08:40.218Z,4.93
2018-06-23T23:11:16.651Z,4.90
2018-06-23T23:13:54.509Z,4.10
2018-06-23T23:16:33.634Z,4.90
2018-06-23T23:19:12.727Z,4.93
2018-06-23T23:21:55.344Z,9.10
2018-06-23T23:24:31.719Z,12.50
2018-06-23T23:27:10.622Z,12.00
2018-06-23T23:29:47.001Z,11.50
2018-06-23T23:32:23.427Z,11.10
2018-06-23T23:34:59.738Z,8.50
2018-06-23T23:37:36.355Z,9.30
2018-06-23T23:40:12.788Z,8.33
2018-06-23T23:42:49.094Z,10.03
2018-06-23T23:45:25.486Z,17.67
2018-06-23T23:48:02.481Z,9.30
2018-06-23T23:50:39.185Z,4.57
2018-06-23T23:53:15.472Z,4.13
2018-06-23T23:55:54.071Z,3.90
2018-06-23T23:58:30.381Z,6.57
